createdAt,value
2023-05-24T00:19:59.908Z,0.50
2023-05-24T00:20:59.892Z,0.50
2023-05-24T00:21:59.871Z,0.50
2023-05-24T00:22:59.863Z,0.50
2023-05-24T00:24:00.087Z,0.50
2023-05-24T00:24:59.862Z,0.50
2023-05-24T00:25:59.847Z,0.50
2023-05-24T00:26:59.847Z,0.51
2023-05-24T00:27:59.844Z,0.50
2023-05-24T00:29:00.109Z,0.50
2023-05-24T00:29:59.816Z,0.50
2023-05-24T00:30:59.822Z,0.50
2023-05-24T00:31:59.853Z,0.50
2023-05-24T00:32:59.861Z,0.51
2023-05-24T00:34:00.072Z,0.50
2023-05-24T00:34:59.777Z,0.50
2023-05-24T00:35:59.787Z,0.51
2023-05-24T00:36:59.770Z,0.54
2023-05-24T00:37:59.770Z,0.51
2023-05-24T00:38:59.789Z,0.51
2023-05-24T00:39:59.748Z,0.51
2023-05-24T00:40:59.736Z,0.51
2023-05-24T00:41:59.731Z,0.50
2023-05-24T00:42:59.731Z,0.51
2023-05-24T00:43:59.726Z,0.51
2023-05-24T00:44:59.727Z,0.51
2023-05-24T00:45:59.774Z,0.51
2023-05-24T00:46:59.701Z,0.52
2023-05-24T00:47:59.733Z,0.51
2023-05-24T00:48:59.687Z,0.53
2023-05-24T00:49:59.696Z,0.53
2023-05-24T00:50:59.669Z,0.52
2023-05-24T00:51:59.679Z,0.54
2023-05-24T00:52:59.679Z,0.50
2023-05-24T00:53:59.650Z,0.51
2023-05-24T00:54:59.646Z,0.52
2023-05-24T00:55:59.646Z,0.51
2023-05-24T00:56:59.627Z,0.51
2023-05-24T00:57:59.646Z,0.51
2023-05-24T00:58:59.616Z,0.50
2023-05-24T00:59:59.613Z,0.50
2023-05-24T01:00:59.610Z,0.53
2023-05-24T01:01:59.699Z,0.52
2023-05-24T01:02:59.668Z,0.51
2023-05-24T01:03:59.814Z,0.50
2023-05-24T01:04:59.567Z,0.51
2023-05-24T01:05:59.556Z,0.54
2023-05-24T01:06:59.551Z,0.51
2023-05-24T01:07:59.558Z,0.52
2023-05-24T01:08:59.545Z,0.54
2023-05-24T01:09:59.558Z,0.54
2023-05-24T01:10:59.529Z,0.53
2023-05-24T01:11:59.536Z,0.54
2023-05-24T01:12:59.526Z,0.52
2023-05-24T01:13:59.513Z,0.51
2023-05-24T01:14:59.521Z,0.52
2023-05-24T01:15:59.528Z,0.54
2023-05-24T01:16:59.488Z,0.52
2023-05-24T01:17:59.521Z,0.50
2023-05-24T01:18:59.480Z,0.54
2023-05-24T01:19:59.496Z,0.54
2023-05-24T01:20:59.461Z,0.53
2023-05-24T01:21:59.448Z,0.53
2023-05-24T01:22:59.444Z,0.53
2023-05-24T01:23:59.435Z,0.53
2023-05-24T01:24:59.441Z,0.52
2023-05-24T01:25:59.425Z,0.50
2023-05-24T01:26:59.418Z,0.51
2023-05-24T01:27:59.424Z,0.52
2023-05-24T01:28:59.411Z,0.51
2023-05-24T01:29:59.456Z,0.52
2023-05-24T01:30:59.434Z,0.53
2023-05-24T01:31:59.370Z,0.50
2023-05-24T01:32:59.403Z,0.51
2023-05-24T01:33:59.372Z,0.51
2023-05-24T01:34:59.381Z,0.52
2023-05-24T01:35:59.371Z,0.52
2023-05-24T01:36:59.369Z,0.51
2023-05-24T01:37:59.339Z,0.51
2023-05-24T01:38:59.331Z,0.51
2023-05-24T01:39:59.338Z,0.51
2023-05-24T01:40:59.344Z,0.50
2023-05-24T01:41:59.306Z,0.52
2023-05-24T01:42:59.302Z,0.53
2023-05-24T01:43:59.309Z,0.52
2023-05-24T01:44:59.300Z,0.51
2023-05-24T01:45:59.309Z,0.51
2023-05-24T01:46:59.329Z,0.55
2023-05-24T01:47:59.385Z,0.55
2023-05-24T01:48:59.287Z,0.55
2023-05-24T01:49:59.285Z,0.52
2023-05-24T01:50:59.265Z,0.54
2023-05-24T01:51:59.363Z,0.53
2023-05-24T01:52:59.284Z,0.52
2023-05-24T01:53:59.317Z,0.53
2023-05-24T01:54:59.317Z,0.51
2023-05-24T01:55:59.349Z,0.53
2023-05-24T01:56:59.355Z,0.54
2023-05-24T01:57:59.382Z,0.53
2023-05-24T01:58:59.396Z,0.55
2023-05-24T01:59:59.405Z,0.58
2023-05-24T02:00:59.456Z,0.57
2023-05-24T02:01:59.440Z,0.63
2023-05-24T02:02:59.546Z,0.56
2023-05-24T02:03:59.441Z,0.56
2023-05-24T02:04:59.458Z,0.56
2023-05-24T02:05:59.470Z,0.54
2023-05-24T02:06:59.478Z,0.55
2023-05-24T02:07:59.509Z,0.57
2023-05-24T02:08:59.516Z,0.53
2023-05-24T02:09:59.511Z,0.50
2023-05-24T02:10:59.539Z,0.53
2023-05-24T02:11:59.546Z,0.54
2023-05-24T02:12:59.638Z,0.51
2023-05-24T02:13:59.603Z,0.52
2023-05-24T02:14:59.589Z,0.54
2023-05-24T02:15:59.619Z,0.54
2023-05-24T02:16:59.669Z,0.55
2023-05-24T02:17:59.694Z,0.55
2023-05-24T02:18:59.663Z,0.56
2023-05-24T02:19:59.737Z,0.58
2023-05-24T02:20:59.701Z,0.55
2023-05-24T02:21:59.701Z,0.58
2023-05-24T02:22:59.718Z,0.58
2023-05-24T02:23:59.733Z,0.58
2023-05-24T02:24:59.738Z,0.61
2023-05-24T02:25:59.779Z,0.55
2023-05-24T02:26:59.773Z,0.54
2023-05-24T02:27:59.805Z,0.57
2023-05-24T02:28:59.810Z,0.58
2023-05-24T02:29:59.817Z,0.59
2023-05-24T02:30:59.855Z,0.63
2023-05-24T02:31:59.853Z,0.61
2023-05-24T02:32:59.944Z,0.61
2023-05-24T02:33:59.891Z,0.61
2023-05-24T02:34:59.910Z,0.61
2023-05-24T02:35:59.927Z,0.61
2023-05-24T02:36:59.935Z,0.60
2023-05-24T02:37:59.973Z,0.61
2023-05-24T02:38:59.976Z,0.62
2023-05-24T02:39:59.992Z,0.62
2023-05-24T02:41:00.008Z,0.62
2023-05-24T02:42:00.104Z,0.61
2023-05-24T02:43:00.060Z,0.58
2023-05-24T02:44:00.101Z,0.54
2023-05-24T02:45:00.114Z,0.54
2023-05-24T02:46:00.152Z,0.52
2023-05-24T02:47:00.154Z,0.51
2023-05-24T02:48:00.340Z,0.56
2023-05-24T02:49:00.232Z,0.60
2023-05-24T02:50:00.216Z,0.61
2023-05-24T02:51:00.216Z,0.62
2023-05-24T02:52:00.248Z,0.58
2023-05-24T02:53:00.262Z,0.58
2023-05-24T02:54:00.272Z,0.58
2023-05-24T02:55:00.299Z,0.60
2023-05-24T02:56:00.305Z,0.60
2023-05-24T02:57:00.330Z,0.59
2023-05-24T02:58:00.344Z,0.55
2023-05-24T02:59:00.371Z,0.55
2023-05-24T03:00:00.390Z,0.58
2023-05-24T03:01:00.410Z,0.60
2023-05-24T03:02:00.471Z,0.57
2023-05-24T03:03:00.531Z,0.56
2023-05-24T03:04:00.595Z,0.58
2023-05-24T03:05:00.499Z,0.58
2023-05-24T03:06:00.538Z,0.56
2023-05-24T03:07:00.520Z,0.57
2023-05-24T03:08:00.555Z,0.56
2023-05-24T03:09:00.580Z,0.55
2023-05-24T03:10:00.632Z,0.56
2023-05-24T03:11:00.626Z,0.56
2023-05-24T03:12:00.628Z,0.55
2023-05-24T03:13:00.656Z,0.56
2023-05-24T03:14:00.658Z,0.60
2023-05-24T03:15:00.678Z,0.58
2023-05-24T03:16:00.805Z,0.58
2023-05-24T03:17:00.713Z,0.58
2023-05-24T03:18:00.770Z,0.59
2023-05-24T03:19:00.740Z,0.59
2023-05-24T03:20:00.779Z,0.59
2023-05-24T03:21:00.805Z,0.56
2023-05-24T03:22:00.794Z,0.58
2023-05-24T03:23:00.816Z,0.59
2023-05-24T03:24:00.822Z,0.59
2023-05-24T03:25:00.856Z,0.57
2023-05-24T03:26:00.890Z,0.56
2023-05-24T03:27:00.891Z,0.56
2023-05-24T03:28:00.925Z,0.55
2023-05-24T03:29:00.962Z,0.55
2023-05-24T03:30:00.961Z,0.55
2023-05-24T03:31:01.015Z,0.54
2023-05-24T03:32:01.055Z,0.52
2023-05-24T03:33:01.071Z,0.52
2023-05-24T03:34:01.045Z,0.53
2023-05-24T03:35:01.053Z,0.54
2023-05-24T03:36:01.109Z,0.51
2023-05-24T03:37:01.089Z,0.50
2023-05-24T03:38:01.100Z,0.50
2023-05-24T03:39:01.123Z,0.53
2023-05-24T03:40:01.155Z,0.56
2023-05-24T03:41:01.170Z,0.57
2023-05-24T03:42:01.194Z,0.58
2023-05-24T03:43:03.008Z,0.58
2023-05-24T03:44:01.203Z,0.57
2023-05-24T03:45:01.196Z,0.59
2023-05-24T03:46:01.297Z,0.60
2023-05-24T03:47:01.177Z,0.60
2023-05-24T03:48:01.225Z,0.60
2023-05-24T03:49:01.176Z,0.61
2023-05-24T03:50:01.160Z,0.61
2023-05-24T03:51:01.151Z,0.63
2023-05-24T03:52:01.153Z,0.59
2023-05-24T03:53:01.155Z,0.59
2023-05-24T03:54:01.146Z,0.62
2023-05-24T03:55:01.119Z,0.63
2023-05-24T03:56:01.129Z,0.59
2023-05-24T03:57:01.120Z,0.62
2023-05-24T03:58:01.106Z,0.59
2023-05-24T03:59:01.118Z,0.61
2023-05-24T04:00:01.097Z,0.62
2023-05-24T04:01:01.111Z,0.62
2023-05-24T04:02:01.126Z,0.59
2023-05-24T04:03:01.170Z,0.54
2023-05-24T04:04:01.113Z,0.56
2023-05-24T04:05:01.062Z,0.57
2023-05-24T04:06:01.056Z,0.58
2023-05-24T04:07:01.065Z,0.59
2023-05-24T04:08:01.042Z,0.56
2023-05-24T04:09:01.032Z,0.56
2023-05-24T04:10:01.039Z,0.54
2023-05-24T04:11:01.034Z,0.54
2023-05-24T04:12:01.034Z,0.54
2023-05-24T04:13:00.999Z,0.59
2023-05-24T04:14:01.005Z,0.58
2023-05-24T04:15:00.997Z,0.58
2023-05-24T04:16:00.985Z,0.51
2023-05-24T04:17:01.143Z,0.51
2023-05-24T04:18:01.037Z,0.54
2023-05-24T04:19:01.062Z,0.56
2023-05-24T04:20:00.983Z,0.54
2023-05-24T04:21:00.951Z,0.53
2023-05-24T04:22:00.936Z,0.52
2023-05-24T04:23:00.948Z,0.54
2023-05-24T04:24:00.920Z,0.54
2023-05-24T04:25:00.943Z,0.55
2023-05-24T04:26:00.910Z,0.56
2023-05-24T04:27:00.923Z,0.56
2023-05-24T04:28:00.892Z,0.53
2023-05-24T04:29:00.896Z,0.51
2023-05-24T04:30:00.888Z,0.51
2023-05-24T04:31:00.930Z,0.53
2023-05-24T04:32:00.887Z,0.55
2023-05-24T04:33:00.919Z,0.54
2023-05-24T04:34:00.850Z,0.56
2023-05-24T04:35:00.835Z,0.52
2023-05-24T04:36:00.842Z,0.51
2023-05-24T04:37:00.836Z,0.53
2023-05-24T04:38:00.850Z,0.53
2023-05-24T04:39:00.822Z,0.52
2023-05-24T04:40:00.817Z,0.51
2023-05-24T04:41:00.813Z,0.51
2023-05-24T04:42:00.819Z,0.52
2023-05-24T04:43:00.792Z,0.54
2023-05-24T04:44:00.790Z,0.56
2023-05-24T04:45:00.797Z,0.55
2023-05-24T04:46:00.768Z,0.55
2023-05-24T04:47:00.822Z,0.51
2023-05-24T04:48:00.866Z,0.53
2023-05-24T04:49:00.745Z,0.50
2023-05-24T04:50:00.745Z,0.54
2023-05-24T04:51:00.723Z,0.56
2023-05-24T04:52:00.729Z,0.56
2023-05-24T04:53:00.713Z,0.53
2023-05-24T04:54:00.715Z,0.54
2023-05-24T04:55:00.731Z,0.56
2023-05-24T04:56:00.689Z,0.58
2023-05-24T04:57:00.701Z,0.56
2023-05-24T04:58:00.797Z,0.54
2023-05-24T04:59:00.673Z,0.54
2023-05-24T05:00:00.688Z,0.57
2023-05-24T05:01:00.665Z,0.58
2023-05-24T05:02:00.776Z,0.56
2023-05-24T05:03:00.741Z,0.55
2023-05-24T05:04:00.737Z,0.52
2023-05-24T05:05:00.629Z,0.52
2023-05-24T05:06:00.630Z,0.54
2023-05-24T05:07:00.613Z,0.54
2023-05-24T05:08:00.619Z,0.55
2023-05-24T05:09:00.598Z,0.57
2023-05-24T05:10:00.601Z,0.56
2023-05-24T05:11:00.584Z,0.54
2023-05-24T05:12:00.604Z,0.54
2023-05-24T05:13:00.604Z,0.54
2023-05-24T05:14:00.634Z,0.56
2023-05-24T05:15:00.663Z,0.56
2023-05-24T05:16:00.664Z,0.58
2023-05-24T05:17:00.687Z,0.54
2023-05-24T05:18:00.755Z,0.51
2023-05-24T05:19:00.724Z,0.53
2023-05-24T05:20:00.787Z,0.51
2023-05-24T05:21:00.789Z,0.53
2023-05-24T05:22:00.813Z,0.52
2023-05-24T05:23:00.803Z,0.52
2023-05-24T05:24:00.838Z,0.52
2023-05-24T05:25:00.860Z,0.52
2023-05-24T05:26:00.868Z,0.52
2023-05-24T05:27:00.873Z,0.52
2023-05-24T05:28:00.921Z,0.53
2023-05-24T05:29:00.999Z,0.54
2023-05-24T05:30:00.922Z,0.56
2023-05-24T05:31:01.012Z,0.56
2023-05-24T05:32:01.012Z,0.59
2023-05-24T05:33:01.098Z,0.60
2023-05-24T05:34:01.048Z,0.53
2023-05-24T05:35:01.119Z,0.53
2023-05-24T05:36:01.270Z,0.53
2023-05-24T05:37:01.115Z,0.52
2023-05-24T05:38:01.160Z,0.54
2023-05-24T05:39:01.131Z,0.59
2023-05-24T05:40:01.235Z,0.64
2023-05-24T05:41:01.231Z,0.72
2023-05-24T05:42:01.184Z,0.80
2023-05-24T05:43:01.204Z,0.87
2023-05-24T05:44:01.208Z,0.87
2023-05-24T05:45:01.263Z,0.92
2023-05-24T05:46:01.254Z,0.98
2023-05-24T05:47:01.231Z,1.04
2023-05-24T05:48:01.262Z,1.03
2023-05-24T05:49:01.240Z,0.99
2023-05-24T05:50:01.249Z,0.89
2023-05-24T05:51:01.288Z,0.85
2023-05-24T05:52:01.253Z,0.80
2023-05-24T05:53:01.281Z,0.76
2023-05-24T05:54:01.260Z,0.73
2023-05-24T05:55:01.269Z,0.73
2023-05-24T05:56:02.251Z,0.71
2023-05-24T05:57:01.716Z,0.69
2023-05-24T05:58:01.362Z,0.68
2023-05-24T05:59:01.306Z,0.70
2023-05-24T06:00:01.360Z,0.68
2023-05-24T06:01:01.401Z,0.65
2023-05-24T06:02:01.385Z,0.65
2023-05-24T06:03:01.397Z,0.67
2023-05-24T06:04:01.423Z,0.64
2023-05-24T06:05:01.435Z,0.62
2023-05-24T06:06:01.418Z,0.62
2023-05-24T06:07:01.485Z,0.63
2023-05-24T06:08:01.435Z,0.62
2023-05-24T06:09:01.453Z,0.61
2023-05-24T06:10:01.491Z,0.62
2023-05-24T06:11:01.495Z,0.58
2023-05-24T06:12:01.555Z,0.61
2023-05-24T06:13:01.640Z,0.61
2023-05-24T06:14:01.590Z,0.61
2023-05-24T06:15:01.603Z,0.62
2023-05-24T06:16:01.752Z,0.59
2023-05-24T06:17:01.633Z,0.60
2023-05-24T06:18:01.727Z,0.56
2023-05-24T06:19:06.376Z,0.58
2023-05-24T06:20:02.706Z,0.58
2023-05-24T06:21:01.680Z,0.59
2023-05-24T06:22:01.744Z,0.58
2023-05-24T06:23:01.659Z,0.57
2023-05-24T06:24:01.658Z,0.57
2023-05-24T06:25:01.670Z,0.58
2023-05-24T06:26:01.718Z,0.57
2023-05-24T06:27:03.259Z,0.57
2023-05-24T06:28:01.614Z,0.57
2023-05-24T06:29:01.619Z,0.55
2023-05-24T06:30:01.705Z,0.55
2023-05-24T06:31:01.634Z,0.56
2023-05-24T06:32:01.620Z,0.56
2023-05-24T06:33:01.689Z,0.54
2023-05-24T06:34:04.233Z,0.53
2023-05-24T06:35:01.575Z,0.53
2023-05-24T06:36:01.666Z,0.53
2023-05-24T06:37:01.557Z,0.56
2023-05-24T06:38:01.558Z,0.62
2023-05-24T06:39:01.582Z,0.77
2023-05-24T06:40:01.575Z,0.88
2023-05-24T06:41:01.584Z,1.02
2023-05-24T06:42:01.550Z,1.19
2023-05-24T06:43:01.540Z,1.39
2023-05-24T06:44:01.522Z,1.59
2023-05-24T06:45:01.571Z,1.78
2023-05-24T06:46:01.741Z,1.81
2023-05-24T06:47:01.537Z,1.94
2023-05-24T06:48:01.649Z,1.97
2023-05-24T06:49:01.595Z,2.11
2023-05-24T06:50:01.576Z,2.09
2023-05-24T06:51:01.737Z,2.23
2023-05-24T06:52:01.762Z,2.41
2023-05-24T06:53:01.470Z,2.51
2023-05-24T06:54:01.458Z,2.59
2023-05-24T06:55:01.479Z,2.58
2023-05-24T06:56:01.443Z,2.68
2023-05-24T06:57:01.490Z,2.61
2023-05-24T06:58:01.456Z,2.64
2023-05-24T06:59:01.471Z,2.73
2023-05-24T07:00:01.607Z,2.76
2023-05-24T07:01:01.463Z,2.85
2023-05-24T07:02:03.683Z,3.01
2023-05-24T07:03:01.450Z,3.02
2023-05-24T07:04:01.477Z,3.05
2023-05-24T07:05:01.439Z,3.10
2023-05-24T07:06:01.406Z,3.21
2023-05-24T07:07:01.417Z,3.18
2023-05-24T07:08:01.396Z,3.09
2023-05-24T07:09:01.375Z,2.58
2023-05-24T07:10:01.377Z,1.91
2023-05-24T07:11:01.382Z,1.80
2023-05-24T07:12:01.358Z,2.00
2023-05-24T07:13:01.347Z,2.20
2023-05-24T07:14:01.371Z,2.41
2023-05-24T07:15:01.336Z,2.63
2023-05-24T07:16:01.395Z,2.74
2023-05-24T07:17:01.401Z,2.72
2023-05-24T07:18:01.369Z,2.63
2023-05-24T07:19:03.976Z,2.59
2023-05-24T07:20:01.476Z,2.59
2023-05-24T07:21:01.447Z,2.59
2023-05-24T07:22:01.293Z,2.53
2023-05-24T07:23:01.283Z,2.48
2023-05-24T07:24:01.304Z,2.51
2023-05-24T07:25:01.328Z,2.65
2023-05-24T07:26:01.266Z,2.54
2023-05-24T07:27:01.275Z,2.60
2023-05-24T07:28:01.236Z,2.72
2023-05-24T07:29:01.250Z,2.80
2023-05-24T07:30:01.294Z,2.70
2023-05-24T07:31:01.223Z,2.56
2023-05-24T07:32:01.397Z,2.60
2023-05-24T07:33:01.665Z,2.53
2023-05-24T07:34:01.236Z,2.20
2023-05-24T07:35:01.197Z,2.03
2023-05-24T07:36:01.186Z,1.85
2023-05-24T07:37:01.208Z,1.71
2023-05-24T07:38:01.238Z,1.67
2023-05-24T07:39:01.240Z,1.71
2023-05-24T07:40:01.159Z,1.62
2023-05-24T07:41:01.157Z,1.60
2023-05-24T07:42:01.157Z,1.68
2023-05-24T07:43:01.600Z,1.83
2023-05-24T07:44:01.158Z,2.01
2023-05-24T07:45:01.131Z,2.06
2023-05-24T07:46:01.137Z,1.98
2023-05-24T07:47:01.106Z,1.93
2023-05-24T07:48:01.175Z,2.12
2023-05-24T07:49:01.120Z,2.16
2023-05-24T07:50:01.090Z,2.11
2023-05-24T07:51:01.090Z,2.23
2023-05-24T07:52:01.093Z,2.29
2023-05-24T07:53:01.160Z,2.37
2023-05-24T07:54:01.240Z,2.26
2023-05-24T07:55:01.072Z,2.27
2023-05-24T07:56:01.095Z,2.25
2023-05-24T07:57:01.049Z,2.23
2023-05-24T07:58:01.082Z,2.14
2023-05-24T07:59:01.041Z,2.20
2023-05-24T08:00:01.033Z,2.39
2023-05-24T08:01:01.042Z,2.41
2023-05-24T08:02:01.026Z,2.35
2023-05-24T08:03:01.133Z,2.19
2023-05-24T08:04:01.160Z,2.02
2023-05-24T08:05:00.996Z,2.02
2023-05-24T08:06:00.987Z,2.11
2023-05-24T08:07:01.003Z,2.06
2023-05-24T08:08:00.973Z,2.00
2023-05-24T08:09:00.966Z,2.07
2023-05-24T08:10:00.961Z,2.19
2023-05-24T08:11:00.967Z,2.27
2023-05-24T08:12:01.029Z,2.18
2023-05-24T08:13:01.073Z,2.26
2023-05-24T08:14:01.051Z,2.17
2023-05-24T08:15:01.105Z,2.20
2023-05-24T08:16:01.163Z,2.42
2023-05-24T08:17:01.214Z,2.34
2023-05-24T08:18:01.285Z,2.31
2023-05-24T08:19:01.287Z,2.33
2023-05-24T08:20:01.584Z,2.31
2023-05-24T08:21:01.419Z,2.34
2023-05-24T08:22:01.466Z,2.30
2023-05-24T08:23:01.515Z,2.29
2023-05-24T08:24:01.570Z,2.20
2023-05-24T08:25:01.662Z,2.09
2023-05-24T08:26:01.717Z,2.07
2023-05-24T08:27:01.754Z,2.30
2023-05-24T08:28:01.870Z,1.94
2023-05-24T08:29:01.872Z,1.20
2023-05-24T08:30:01.994Z,0.94
2023-05-24T08:31:01.996Z,0.73
2023-05-24T08:32:02.383Z,0.63
2023-05-24T08:33:02.110Z,0.53
2023-05-24T08:34:02.059Z,0.49
2023-05-24T08:35:17.503Z,0.50
2023-05-24T08:36:03.074Z,0.49
2023-05-24T08:37:02.000Z,0.45
2023-05-24T08:38:02.066Z,0.42
2023-05-24T08:39:01.976Z,0.37
2023-05-24T08:40:01.962Z,0.37
2023-05-24T08:41:02.029Z,0.41
2023-05-24T08:43:01.966Z,0.55
2023-05-24T08:44:01.948Z,0.66
2023-05-24T08:45:01.933Z,0.87
2023-05-24T08:46:02.838Z,1.04
2023-05-24T08:47:01.951Z,1.21
2023-05-24T08:48:01.989Z,1.27
2023-05-24T08:49:01.960Z,1.53
2023-05-24T08:50:01.903Z,1.90
2023-05-24T08:51:02.345Z,2.18
2023-05-24T08:52:02.316Z,2.38
2023-05-24T08:53:01.907Z,2.52
2023-05-24T08:54:01.934Z,2.66
2023-05-24T08:55:01.887Z,2.71
2023-05-24T08:56:02.369Z,2.83
2023-05-24T08:57:01.911Z,2.96
2023-05-24T08:58:01.904Z,2.95
2023-05-24T08:59:01.976Z,2.78
2023-05-24T09:00:01.924Z,2.41
2023-05-24T09:01:01.871Z,2.37
2023-05-24T09:02:01.888Z,2.15
2023-05-24T09:03:01.844Z,2.01
2023-05-24T09:04:01.853Z,1.82
2023-05-24T09:05:01.812Z,1.81
2023-05-24T09:06:01.907Z,1.80
2023-05-24T09:07:01.793Z,1.83
2023-05-24T09:08:01.814Z,1.91
2023-05-24T09:09:01.782Z,2.07
2023-05-24T09:10:01.789Z,1.98
2023-05-24T09:11:01.894Z,1.81
2023-05-24T09:12:01.777Z,1.93
2023-05-24T09:13:01.820Z,1.78
2023-05-24T09:14:01.806Z,1.79
2023-05-24T09:15:01.778Z,1.68
2023-05-24T09:16:01.787Z,1.62
2023-05-24T09:17:01.756Z,1.53
2023-05-24T09:18:01.782Z,1.63
2023-05-24T09:19:01.787Z,1.52
2023-05-24T09:20:01.778Z,1.52
2023-05-24T09:21:01.703Z,1.52
2023-05-24T09:22:01.699Z,1.57
2023-05-24T09:23:01.691Z,1.58
2023-05-24T09:24:01.685Z,1.43
2023-05-24T09:25:01.689Z,1.44
2023-05-24T09:26:01.662Z,1.29
2023-05-24T09:27:01.701Z,1.33
2023-05-24T09:28:01.794Z,1.34
2023-05-24T09:29:01.884Z,1.24
2023-05-24T09:30:01.895Z,1.31
2023-05-24T09:31:03.934Z,1.44
2023-05-24T09:32:02.002Z,1.48
2023-05-24T09:33:02.035Z,1.42
2023-05-24T09:34:01.949Z,1.35
2023-05-24T09:35:01.985Z,1.31
2023-05-24T09:36:01.965Z,1.31
2023-05-24T09:37:02.336Z,0.99
2023-05-24T09:38:01.971Z,1.07
2023-05-24T09:39:01.896Z,1.07
2023-05-24T09:40:01.986Z,1.27
2023-05-24T09:41:01.907Z,1.11
2023-05-24T09:42:01.910Z,1.09
2023-05-24T09:43:01.938Z,1.04
2023-05-24T09:44:01.863Z,0.97
2023-05-24T09:45:01.933Z,1.06
2023-05-24T09:46:01.859Z,0.91
2023-05-24T09:47:01.992Z,0.88
2023-05-24T09:48:01.915Z,0.81
2023-05-24T09:49:01.871Z,0.83
2023-05-24T09:50:01.848Z,0.83
2023-05-24T09:51:01.884Z,0.92
2023-05-24T09:52:02.476Z,1.05
2023-05-24T09:53:01.824Z,1.07
2023-05-24T09:54:01.823Z,1.09
2023-05-24T09:55:01.809Z,1.07
2023-05-24T09:56:02.077Z,1.13
2023-05-24T09:57:03.470Z,1.01
2023-05-24T09:58:01.795Z,1.00
2023-05-24T09:59:01.810Z,0.89
2023-05-24T10:00:01.913Z,0.86
2023-05-24T10:01:01.839Z,0.90
2023-05-24T10:02:01.851Z,0.94
2023-05-24T10:03:01.828Z,1.02
2023-05-24T10:04:01.869Z,1.07
2023-05-24T10:05:01.771Z,1.06
2023-05-24T10:06:01.730Z,0.96
2023-05-24T10:07:01.834Z,0.89
2023-05-24T10:08:01.725Z,0.90
2023-05-24T10:09:01.728Z,0.86
2023-05-24T10:10:01.735Z,0.95
2023-05-24T10:11:01.708Z,0.97
2023-05-24T10:12:01.859Z,0.98
2023-05-24T10:13:01.743Z,1.00
2023-05-24T10:14:01.721Z,0.94
2023-05-24T10:15:01.698Z,0.88
2023-05-24T10:16:01.690Z,0.79
2023-05-24T10:17:01.724Z,0.76
2023-05-24T10:18:01.896Z,0.64
2023-05-24T10:19:01.653Z,0.62
2023-05-24T10:20:01.701Z,0.66
2023-05-24T10:21:01.922Z,0.67
2023-05-24T10:22:01.650Z,0.75
2023-05-24T10:23:01.988Z,0.80
2023-05-24T10:24:01.618Z,0.68
2023-05-24T10:25:01.616Z,0.74
2023-05-24T10:26:01.612Z,0.75
2023-05-24T10:27:01.837Z,0.77
2023-05-24T10:28:01.647Z,0.85
2023-05-24T10:29:01.600Z,0.76
2023-05-24T10:30:01.692Z,0.66
2023-05-24T10:31:01.742Z,0.66
2023-05-24T10:32:01.852Z,0.75
2023-05-24T10:33:01.586Z,0.80
2023-05-24T10:34:07.587Z,0.82
2023-05-24T10:35:02.572Z,0.82
2023-05-24T10:36:01.537Z,0.82
2023-05-24T10:37:02.334Z,0.84
2023-05-24T10:38:01.548Z,0.93
2023-05-24T10:39:01.577Z,1.08
2023-05-24T10:40:01.505Z,1.11
2023-05-24T10:41:01.586Z,1.08
2023-05-24T10:42:01.488Z,1.01
2023-05-24T10:43:01.497Z,0.88
2023-05-24T10:44:09.913Z,0.69
2023-05-24T10:45:02.474Z,0.64
2023-05-24T10:46:01.512Z,0.64
2023-05-24T10:47:01.462Z,0.62
2023-05-24T10:48:01.511Z,0.65
2023-05-24T10:49:01.452Z,0.70
2023-05-24T10:50:01.458Z,0.78
2023-05-24T10:51:01.423Z,0.92
2023-05-24T10:52:01.499Z,1.01
2023-05-24T10:53:01.423Z,1.07
2023-05-24T10:54:01.501Z,1.13
2023-05-24T10:55:04.416Z,1.16
2023-05-24T10:56:01.424Z,1.15
2023-05-24T10:57:01.413Z,1.09
2023-05-24T10:58:01.405Z,1.08
2023-05-24T10:59:01.407Z,1.11
2023-05-24T11:00:01.398Z,1.15
2023-05-24T11:01:01.386Z,1.19
2023-05-24T11:02:01.448Z,1.20
2023-05-24T11:03:01.489Z,1.22
2023-05-24T11:04:01.376Z,1.19
2023-05-24T11:05:01.399Z,1.18
2023-05-24T11:06:01.433Z,1.19
2023-05-24T11:07:01.364Z,1.16
2023-05-24T11:08:01.349Z,1.15
2023-05-24T11:09:01.363Z,1.09
2023-05-24T11:10:01.388Z,1.05
2023-05-24T11:11:11.468Z,1.01
2023-05-24T11:12:02.323Z,1.01
2023-05-24T11:13:01.340Z,0.90
2023-05-24T11:14:01.385Z,0.96
2023-05-24T11:15:01.297Z,1.02
2023-05-24T11:16:01.403Z,1.05
2023-05-24T11:17:01.303Z,1.14
2023-05-24T11:18:01.379Z,1.15
2023-05-24T11:19:01.253Z,1.19
2023-05-24T11:20:01.325Z,1.18
2023-05-24T11:21:01.306Z,1.28
2023-05-24T11:41:51.817Z,0.50
2023-05-24T11:42:51.718Z,0.50
2023-05-24T11:43:51.702Z,0.50
2023-05-24T11:44:51.699Z,0.50
2023-05-24T11:45:51.720Z,0.50
2023-05-24T11:46:51.710Z,0.51
2023-05-24T11:47:51.710Z,0.51
2023-05-24T11:48:51.678Z,0.51
2023-05-24T11:49:51.662Z,0.50
2023-05-24T11:50:52.058Z,0.50
2023-05-24T11:53:10.961Z,0.50
2023-05-24T11:54:10.969Z,0.50
2023-05-24T11:55:11.045Z,0.50
2023-05-24T11:56:11.128Z,0.50
2023-05-24T11:57:11.254Z,0.50
2023-05-24T11:58:11.254Z,0.50
2023-05-24T11:59:11.318Z,0.51
2023-05-24T12:00:11.523Z,0.50
2023-05-24T12:01:11.458Z,0.50
2023-05-24T12:02:11.538Z,0.50
2023-05-24T12:03:11.612Z,0.51
2023-05-24T12:04:12.135Z,0.51
2023-05-24T12:05:11.655Z,0.51
2023-05-24T12:06:11.701Z,0.51
2023-05-24T12:07:11.762Z,0.51
2023-05-24T12:08:12.703Z,0.50
2023-05-24T12:09:11.896Z,0.51
2023-05-24T12:10:11.932Z,0.51
2023-05-24T12:11:11.994Z,0.51
2023-05-24T12:12:12.075Z,0.51
2023-05-24T12:13:12.135Z,0.51
2023-05-24T12:14:12.179Z,0.51
2023-05-24T12:15:12.252Z,0.52
2023-05-24T12:16:12.367Z,0.51
2023-05-24T12:17:12.367Z,0.50
2023-05-24T12:18:12.451Z,0.50
2023-05-24T12:19:23.869Z,0.50
2023-05-24T12:20:13.538Z,0.50
2023-05-24T12:21:12.441Z,0.50
2023-05-24T12:22:12.437Z,0.51
2023-05-24T12:23:12.434Z,0.53
2023-05-24T12:24:12.476Z,0.55
2023-05-24T12:25:12.418Z,0.55
2023-05-24T12:26:12.409Z,0.55
2023-05-24T12:27:12.405Z,0.55
2023-05-24T12:28:12.433Z,0.55
2023-05-24T12:29:12.497Z,0.55
2023-05-24T12:30:12.550Z,0.54
2023-05-24T12:31:12.665Z,0.55
2023-05-24T12:32:13.868Z,0.54
2023-05-24T12:33:12.760Z,0.54
2023-05-24T12:34:12.770Z,0.54
2023-05-24T12:35:12.820Z,0.53
2023-05-24T12:36:12.866Z,0.52
2023-05-24T12:37:13.780Z,0.53
2023-05-24T12:38:12.970Z,0.54
2023-05-24T12:39:13.020Z,0.53
2023-05-24T12:40:13.054Z,0.55
2023-05-24T12:41:14.146Z,0.54
2023-05-24T12:42:13.248Z,0.56
2023-05-24T12:43:13.186Z,0.56
2023-05-24T12:44:13.229Z,0.58
2023-05-24T12:45:13.338Z,0.58
2023-05-24T12:46:13.339Z,0.57
2023-05-24T12:47:13.467Z,0.56
2023-05-24T12:48:13.431Z,0.56
2023-05-24T12:49:13.427Z,0.56
2023-05-24T12:50:13.445Z,0.58
2023-05-24T12:51:13.471Z,0.59
2023-05-24T12:52:13.520Z,0.56
2023-05-24T12:53:13.552Z,0.53
2023-05-24T12:54:13.556Z,0.55
2023-05-24T12:55:13.598Z,0.56
2023-05-24T12:56:13.623Z,0.56
2023-05-24T12:57:13.660Z,0.57
2023-05-24T12:58:13.713Z,0.57
2023-05-24T12:59:13.736Z,0.56
2023-05-24T13:00:13.786Z,0.57
2023-05-24T13:01:13.920Z,0.56
2023-05-24T13:02:13.873Z,0.54
2023-05-24T13:03:13.919Z,0.54
2023-05-24T13:04:13.926Z,0.53
2023-05-24T13:05:13.995Z,0.54
2023-05-24T13:06:13.969Z,0.54
2023-05-24T13:07:13.995Z,0.56
2023-05-24T13:08:14.010Z,0.53
2023-05-24T13:09:14.046Z,0.53
2023-05-24T13:10:14.070Z,0.51
2023-05-24T13:11:14.057Z,0.51
2023-05-24T13:12:14.077Z,0.51
2023-05-24T13:13:14.062Z,0.54
2023-05-24T13:14:14.070Z,0.55
2023-05-24T13:15:14.094Z,0.55
2023-05-24T13:16:14.188Z,0.54
2023-05-24T13:17:14.188Z,0.54
2023-05-24T13:18:14.171Z,0.54
2023-05-24T13:19:14.124Z,0.54
2023-05-24T13:20:14.268Z,0.55
2023-05-24T13:21:14.125Z,0.55
2023-05-24T13:22:14.118Z,0.56
2023-05-24T13:23:14.144Z,0.54
2023-05-24T13:24:14.121Z,0.54
2023-05-24T13:25:14.129Z,0.56
2023-05-24T13:26:14.171Z,0.56
2023-05-24T13:27:14.175Z,0.54
2023-05-24T13:28:14.205Z,0.53
2023-05-24T13:29:30.685Z,0.55
2023-05-24T13:30:15.202Z,0.55
2023-05-24T13:31:14.256Z,0.55
2023-05-24T13:32:14.183Z,0.56
2023-05-24T13:33:14.263Z,0.57
2023-05-24T13:34:14.158Z,0.57
2023-05-24T13:35:14.159Z,0.56
2023-05-24T13:36:14.145Z,0.58
2023-05-24T13:37:14.148Z,0.55
2023-05-24T13:38:14.130Z,0.55
2023-05-24T13:39:16.015Z,0.53
2023-05-24T13:40:14.351Z,0.53
2023-05-24T13:41:14.319Z,0.52
2023-05-24T13:42:14.392Z,0.52
2023-05-24T13:43:14.372Z,0.53
2023-05-24T13:44:14.388Z,0.54
2023-05-24T13:45:14.388Z,0.53
2023-05-24T13:46:14.430Z,0.53
2023-05-24T13:47:23.748Z,0.53
2023-05-24T13:48:15.415Z,0.53
2023-05-24T13:49:14.356Z,0.54
2023-05-24T13:50:14.369Z,0.54
2023-05-24T13:51:14.347Z,0.53
2023-05-24T13:52:14.353Z,0.52
2023-05-24T13:53:14.361Z,0.54
2023-05-24T13:54:14.321Z,0.54
2023-05-24T13:55:14.295Z,0.52
2023-05-24T13:56:14.320Z,0.54
2023-05-24T13:57:14.295Z,0.54
2023-05-24T13:58:14.286Z,0.53
2023-05-24T13:59:14.301Z,0.55
2023-05-24T14:00:14.281Z,0.54